sensor_id;sensor_type;location;lat;lon;timestamp;pressure;altitude;pressure_sealevel;temperature;humidity
64792;BME280;51226;47.504;19.074;2022-09-13T00:00:06;100155.37;;;16.30;51.57
64792;BME280;51226;47.504;19.074;2022-09-13T00:03:29;100152.69;;;16.27;51.94
64792;BME280;51226;47.504;19.074;2022-09-13T00:06:32;100153.56;;;16.26;52.43
64792;BME280;51226;47.504;19.074;2022-09-13T00:09:35;100152.59;;;16.20;52.67
64792;BME280;51226;47.504;19.074;2022-09-13T00:12:38;100156.09;;;16.20;52.95
64792;BME280;51226;47.504;19.074;2022-09-13T00:15:43;100161.38;;;16.22;53.07
64792;BME280;51226;47.504;19.074;2022-09-13T00:18:45;100164.00;;;16.20;53.22
64792;BME280;51226;47.504;19.074;2022-09-13T00:21:48;100159.59;;;16.18;53.23
64792;BME280;51226;47.504;19.074;2022-09-13T00:24:50;100157.75;;;16.12;53.23
64792;BME280;51226;47.504;19.074;2022-09-13T00:27:53;100157.78;;;16.10;53.17
64792;BME280;51226;47.504;19.074;2022-09-13T00:30:58;100157.78;;;16.10;53.05
64792;BME280;51226;47.504;19.074;2022-09-13T00:34:01;100154.25;;;16.10;52.84
64792;BME280;51226;47.504;19.074;2022-09-13T00:37:04;100159.50;;;16.10;52.72
64792;BME280;51226;47.504;19.074;2022-09-13T00:40:06;100153.31;;;16.06;52.67
64792;BME280;51226;47.504;19.074;2022-09-13T00:43:11;100146.31;;;16.04;52.53
64792;BME280;51226;47.504;19.074;2022-09-13T00:49:35;100149.72;;;15.98;52.51
64792;BME280;51226;47.504;19.074;2022-09-13T00:52:40;100144.47;;;15.98;52.23
64792;BME280;51226;47.504;19.074;2022-09-13T00:55:52;100151.50;;;15.99;52.17
64792;BME280;51226;47.504;19.074;2022-09-13T00:59:01;100154.09;;;15.96;52.00
64792;BME280;51226;47.504;19.074;2022-09-13T01:02:07;100153.13;;;15.89;52.20
64792;BME280;51226;47.504;19.074;2022-09-13T01:05:10;100148.75;;;15.91;52.34
64792;BME280;51226;47.504;19.074;2022-09-13T01:08:13;100159.25;;;15.88;52.31
64792;BME280;51226;47.504;19.074;2022-09-13T01:11:26;100154.84;;;15.86;52.28
64792;BME280;51226;47.504;19.074;2022-09-13T01:14:31;100151.31;;;15.84;52.33
64792;BME280;51226;47.504;19.074;2022-09-13T01:17:34;100156.53;;;15.81;52.61
64792;BME280;51226;47.504;19.074;2022-09-13T01:24:03;100148.63;;;15.79;53.30
64792;BME280;51226;47.504;19.074;2022-09-13T01:30:23;100145.03;;;15.74;54.08
64792;BME280;51226;47.504;19.074;2022-09-13T01:33:35;100144.09;;;15.70;54.87
64792;BME280;51226;47.504;19.074;2022-09-13T01:46:18;100147.41;;;15.55;56.60
64792;BME280;51226;47.504;19.074;2022-09-13T01:52:37;100147.28;;;15.48;57.48
64792;BME280;51226;47.504;19.074;2022-09-13T02:02:01;100142.72;;;15.34;58.47
64792;BME280;51226;47.504;19.074;2022-09-13T02:05:29;100138.31;;;15.35;58.69
64792;BME280;51226;47.504;19.074;2022-09-13T02:08:35;100146.16;;;15.30;58.78
64792;BME280;51226;47.504;19.074;2022-09-13T02:11:39;100133.88;;;15.29;58.45
64792;BME280;51226;47.504;19.074;2022-09-13T02:14:45;100132.22;;;15.36;58.08
64792;BME280;51226;47.504;19.074;2022-09-13T02:17:51;100133.88;;;15.29;57.96
64792;BME280;51226;47.504;19.074;2022-09-13T02:20:57;100134.72;;;15.28;57.89
64792;BME280;51226;47.504;19.074;2022-09-13T02:24:02;100132.97;;;15.26;58.03
64792;BME280;51226;47.504;19.074;2022-09-13T02:27:14;100136.47;;;15.26;58.00
64792;BME280;51226;47.504;19.074;2022-09-13T02:30:18;100131.16;;;15.23;57.77
64792;BME280;51226;47.504;19.074;2022-09-13T02:33:23;100123.28;;;15.23;57.62
64792;BME280;51226;47.504;19.074;2022-09-13T02:36:31;100125.88;;;15.22;57.40
64792;BME280;51226;47.504;19.074;2022-09-13T02:39:36;100120.53;;;15.14;57.40
64792;BME280;51226;47.504;19.074;2022-09-13T02:42:44;100129.22;;;15.11;57.19
64792;BME280;51226;47.504;19.074;2022-09-13T02:45:54;100132.72;;;15.10;57.28
64792;BME280;51226;47.504;19.074;2022-09-13T02:49:13;100134.38;;;15.04;57.25
64792;BME280;51226;47.504;19.074;2022-09-13T02:52:31;100129.06;;;15.00;57.28
64792;BME280;51226;47.504;19.074;2022-09-13T02:58:58;100128.16;;;14.97;57.19
64792;BME280;51226;47.504;19.074;2022-09-13T03:02:05;100123.72;;;14.94;57.04
64792;BME280;51226;47.504;19.074;2022-09-13T03:05:09;100127.97;;;14.88;57.15
64792;BME280;51226;47.504;19.074;2022-09-13T03:08:12;100125.28;;;14.83;57.50
64792;BME280;51226;47.504;19.074;2022-09-13T03:11:23;100119.00;;;14.75;57.72
64792;BME280;51226;47.504;19.074;2022-09-13T03:14:38;100118.94;;;14.69;57.72
64792;BME280;51226;47.504;19.074;2022-09-13T03:30:24;100113.50;;;14.59;58.75
64792;BME280;51226;47.504;19.074;2022-09-13T03:33:28;100105.78;;;14.67;58.58
64792;BME280;51226;47.504;19.074;2022-09-13T03:36:34;100103.78;;;14.55;58.72
64792;BME280;51226;47.504;19.074;2022-09-13T03:39:48;100103.81;;;14.57;58.80
64792;BME280;51226;47.504;19.074;2022-09-13T03:42:53;100101.03;;;14.48;59.04
64792;BME280;51226;47.504;19.074;2022-09-13T03:46:01;100101.06;;;14.49;59.17
64792;BME280;51226;47.504;19.074;2022-09-13T03:49:07;100091.53;;;14.54;59.21
64792;BME280;51226;47.504;19.074;2022-09-13T03:52:11;100097.53;;;14.47;59.31
64792;BME280;51226;47.504;19.074;2022-09-13T03:55:14;100093.91;;;14.40;59.38
64792;BME280;51226;47.504;19.074;2022-09-13T03:58:19;100093.06;;;14.43;59.52
64792;BME280;51226;47.504;19.074;2022-09-13T04:01:23;100087.87;;;14.46;59.67
64792;BME280;51226;47.504;19.074;2022-09-13T04:04:26;100090.31;;;14.35;59.99
64792;BME280;51226;47.504;19.074;2022-09-13T04:07:28;100092.88;;;14.31;60.02
64792;BME280;51226;47.504;19.074;2022-09-13T04:10:31;100099.88;;;14.32;59.97
64792;BME280;51226;47.504;19.074;2022-09-13T04:13:34;100095.44;;;14.27;59.86
64792;BME280;51226;47.504;19.074;2022-09-13T04:16:38;100093.66;;;14.26;59.92
64792;BME280;51226;47.504;19.074;2022-09-13T04:19:40;100094.53;;;14.25;60.00
64792;BME280;51226;47.504;19.074;2022-09-13T04:22:49;100094.53;;;14.25;59.93
64792;BME280;51226;47.504;19.074;2022-09-13T04:25:52;100093.66;;;14.26;60.02
64792;BME280;51226;47.504;19.074;2022-09-13T04:28:55;100092.69;;;14.21;60.14
64792;BME280;51226;47.504;19.074;2022-09-13T04:31:57;100090.03;;;14.20;60.36
64792;BME280;51226;47.504;19.074;2022-09-13T04:35:00;100093.50;;;14.17;60.42
64792;BME280;51226;47.504;19.074;2022-09-13T04:38:02;100097.00;;;14.18;60.60
64792;BME280;51226;47.504;19.074;2022-09-13T04:41:05;100091.78;;;14.19;60.61
64792;BME280;51226;47.504;19.074;2022-09-13T04:44:10;100089.16;;;14.19;60.76
64792;BME280;51226;47.504;19.074;2022-09-13T04:47:13;100088.34;;;14.22;60.93
64792;BME280;51226;47.504;19.074;2022-09-13T04:50:15;100092.69;;;14.21;61.19
64792;BME280;51226;47.504;19.074;2022-09-13T04:53:18;100097.06;;;14.21;61.31
64792;BME280;51226;47.504;19.074;2022-09-13T04:56:20;100097.16;;;14.25;61.34
64792;BME280;51226;47.504;19.074;2022-09-13T04:59:24;100105.91;;;14.27;61.37
64792;BME280;51226;47.504;19.074;2022-09-13T05:02:27;100105.94;;;14.29;61.40
64792;BME280;51226;47.504;19.074;2022-09-13T05:05:29;100102.50;;;14.33;61.35
64792;BME280;51226;47.504;19.074;2022-09-13T05:08:34;100094.75;;;14.39;61.17
64792;BME280;51226;47.504;19.074;2022-09-13T05:11:36;100108.75;;;14.40;61.10
64792;BME280;51226;47.504;19.074;2022-09-13T05:14:39;100109.69;;;14.42;60.79
64792;BME280;51226;47.504;19.074;2022-09-13T05:17:42;100110.66;;;14.47;60.63
64792;BME280;51226;47.504;19.074;2022-09-13T05:20:44;100106.38;;;14.54;60.39
64792;BME280;51226;47.504;19.074;2022-09-13T05:23:50;100112.63;;;14.59;60.31
64792;BME280;51226;47.504;19.074;2022-09-13T05:26:53;100117.16;;;14.68;60.35
64792;BME280;51226;47.504;19.074;2022-09-13T05:29:55;100122.66;;;14.83;60.33
64792;BME280;51226;47.504;19.074;2022-09-13T05:32:58;100122.69;;;14.85;60.37
64792;BME280;51226;47.504;19.074;2022-09-13T05:36:00;100125.22;;;14.80;60.47
64792;BME280;51226;47.504;19.074;2022-09-13T05:39:03;100123.62;;;14.90;60.31
64792;BME280;51226;47.504;19.074;2022-09-13T05:42:26;100122.09;;;15.03;59.70
64792;BME280;51226;47.504;19.074;2022-09-13T05:45:29;100119.47;;;15.03;59.88
64792;BME280;51226;47.504;19.074;2022-09-13T05:48:32;100108.94;;;15.01;59.77
64792;BME280;51226;47.504;19.074;2022-09-13T05:51:34;100110.59;;;14.96;59.75
64792;BME280;51226;47.504;19.074;2022-09-13T05:54:37;100112.31;;;14.92;59.94
64792;BME280;51226;47.504;19.074;2022-09-13T05:57:40;100118.50;;;14.96;59.69
64792;BME280;51226;47.504;19.074;2022-09-13T06:00:42;100113.44;;;15.10;58.83
64792;BME280;51226;47.504;19.074;2022-09-13T06:03:46;100124.16;;;15.22;58.20
64792;BME280;51226;47.504;19.074;2022-09-13T06:06:49;100124.22;;;15.28;58.10
64792;BME280;51226;47.504;19.074;2022-09-13T06:09:51;100118.00;;;15.22;58.26
64792;BME280;51226;47.504;19.074;2022-09-13T06:12:54;100129.47;;;15.28;57.71
64792;BME280;51226;47.504;19.074;2022-09-13T06:15:57;100126.09;;;15.35;57.68
64792;BME280;51226;47.504;19.074;2022-09-13T06:19:00;100127.19;;;15.53;57.42
64792;BME280;51226;47.504;19.074;2022-09-13T06:22:04;100125.66;;;15.69;57.04
64792;BME280;51226;47.504;19.074;2022-09-13T06:25:06;100121.63;;;15.94;55.58
64792;BME280;51226;47.504;19.074;2022-09-13T06:28:09;100131.31;;;16.00;55.60
64792;BME280;51226;47.504;19.074;2022-09-13T06:31:12;100133.13;;;16.05;55.22
64792;BME280;51226;47.504;19.074;2022-09-13T06:34:15;100130.69;;;16.21;54.74
64792;BME280;51226;47.504;19.074;2022-09-13T06:37:18;100129.13;;;16.40;54.37
64792;BME280;51226;47.504;19.074;2022-09-13T06:40:21;100122.28;;;16.60;53.53
64792;BME280;51226;47.504;19.074;2022-09-13T06:43:26;100131.28;;;16.82;52.53
64792;BME280;51226;47.504;19.074;2022-09-13T06:46:29;100133.13;;;16.90;52.49
64792;BME280;51226;47.504;19.074;2022-09-13T06:49:32;100130.59;;;17.03;52.13
64792;BME280;51226;47.504;19.074;2022-09-13T06:52:35;100127.31;;;17.38;51.11
64792;BME280;51226;47.504;19.074;2022-09-13T06:55:38;100130.97;;;17.64;50.26
64792;BME280;51226;47.504;19.074;2022-09-13T06:58:42;100125.72;;;17.68;50.45
64792;BME280;51226;47.504;19.074;2022-09-13T07:01:44;100119.69;;;17.88;50.11
64792;BME280;51226;47.504;19.074;2022-09-13T07:04:48;100123.28;;;18.10;49.16
64792;BME280;51226;47.504;19.074;2022-09-13T07:07:50;100119.84;;;18.51;48.29
64792;BME280;51226;47.504;19.074;2022-09-13T07:10:58;100123.41;;;18.76;47.97
64792;BME280;51226;47.504;19.074;2022-09-13T07:14:01;100124.31;;;19.00;43.60
64792;BME280;51226;47.504;19.074;2022-09-13T07:17:03;100121.66;;;18.83;42.56
64792;BME280;51226;47.504;19.074;2022-09-13T07:20:06;100131.34;;;19.02;41.98
64792;BME280;51226;47.504;19.074;2022-09-13T07:23:10;100130.44;;;19.22;41.63
64792;BME280;51226;47.504;19.074;2022-09-13T07:26:16;100139.19;;;19.49;40.77
64792;BME280;51226;47.504;19.074;2022-09-13T07:29:19;100139.16;;;19.64;40.94
64792;BME280;51226;47.504;19.074;2022-09-13T07:32:24;100133.03;;;19.42;40.27
64792;BME280;51226;47.504;19.074;2022-09-13T07:35:27;100136.56;;;19.42;40.83
64792;BME280;51226;47.504;19.074;2022-09-13T07:38:29;100128.66;;;19.24;41.40
64792;BME280;51226;47.504;19.074;2022-09-13T07:41:32;100125.97;;;19.47;40.96
64792;BME280;51226;47.504;19.074;2022-09-13T07:44:35;100131.22;;;19.62;40.81
64792;BME280;51226;47.504;19.074;2022-09-13T07:47:38;100129.38;;;19.89;40.40
64792;BME280;51226;47.504;19.074;2022-09-13T07:50:40;100132.00;;;19.98;40.08
64792;BME280;51226;47.504;19.074;2022-09-13T07:53:44;100131.38;;;20.99;38.58
64792;BME280;51226;47.504;19.074;2022-09-13T07:56:46;100143.59;;;21.15;37.22
64792;BME280;51226;47.504;19.074;2022-09-13T07:59:52;100142.78;;;21.07;37.16
64792;BME280;51226;47.504;19.074;2022-09-13T08:02:54;100135.84;;;20.90;36.86
64792;BME280;51226;47.504;19.074;2022-09-13T08:05:57;100134.69;;;21.22;36.62
64792;BME280;51226;47.504;19.074;2022-09-13T08:08:59;100128.69;;;21.87;36.31
64792;BME280;51226;47.504;19.074;2022-09-13T08:12:02;100123.03;;;22.12;35.38
64792;BME280;51226;47.504;19.074;2022-09-13T08:15:05;100125.16;;;22.52;34.72
64792;BME280;51226;47.504;19.074;2022-09-13T08:18:08;100127.78;;;23.11;33.85
64792;BME280;51226;47.504;19.074;2022-09-13T08:21:11;100125.91;;;23.63;32.49
64792;BME280;51226;47.504;19.074;2022-09-13T08:24:14;100130.66;;;22.97;33.92
64792;BME280;51226;47.504;19.074;2022-09-13T08:27:17;100134.47;;;22.81;34.69
64792;BME280;51226;47.504;19.074;2022-09-13T08:30:20;100129.00;;;22.88;34.24
64792;BME280;51226;47.504;19.074;2022-09-13T08:33:22;100121.78;;;23.46;33.35
64792;BME280;51226;47.504;19.074;2022-09-13T08:36:26;100128.50;;;23.67;32.91
64792;BME280;51226;47.504;19.074;2022-09-13T08:39:29;100119.66;;;24.09;33.04
64792;BME280;51226;47.504;19.074;2022-09-13T08:45:37;100102.94;;;26.37;29.20
64792;BME280;51226;47.504;19.074;2022-09-13T08:48:41;100110.50;;;27.33;27.51
64792;BME280;51226;47.504;19.074;2022-09-13T08:54:49;100113.25;;;27.80;26.67
64792;BME280;51226;47.504;19.074;2022-09-13T08:58:01;100106.97;;;28.73;25.54
64792;BME280;51226;47.504;19.074;2022-09-13T09:01:07;100101.09;;;28.41;25.48
64792;BME280;51226;47.504;19.074;2022-09-13T09:07:19;100104.44;;;28.02;26.08
64792;BME280;51226;47.504;19.074;2022-09-13T09:10:26;100108.75;;;26.80;28.12
64792;BME280;51226;47.504;19.074;2022-09-13T09:16:37;100113.69;;;28.83;25.30
64792;BME280;51226;47.504;19.074;2022-09-13T09:19:42;100103.94;;;28.36;25.82
64792;BME280;51226;47.504;19.074;2022-09-13T09:22:46;100095.38;;;28.04;25.94
64792;BME280;51226;47.504;19.074;2022-09-13T09:25:54;100101.78;;;28.46;25.38
64792;BME280;51226;47.504;19.074;2022-09-13T09:38:38;100074.44;;;28.80;25.12
64792;BME280;51226;47.504;19.074;2022-09-13T09:41:43;100074.94;;;28.46;24.80
64792;BME280;51226;47.504;19.074;2022-09-13T09:44:47;100073.41;;;28.40;25.50
64792;BME280;51226;47.504;19.074;2022-09-13T09:47:50;100074.16;;;27.98;25.78
64792;BME280;51226;47.504;19.074;2022-09-13T09:50:57;100075.19;;;27.70;26.31
64792;BME280;51226;47.504;19.074;2022-09-13T09:54:01;100072.31;;;27.51;26.52
64792;BME280;51226;47.504;19.074;2022-09-13T09:57:06;100073.84;;;28.94;24.59
64792;BME280;51226;47.504;19.074;2022-09-13T10:00:10;100057.69;;;29.56;23.53
64792;BME280;51226;47.504;19.074;2022-09-13T10:03:23;100048.66;;;30.52;22.56
64792;BME280;51226;47.504;19.074;2022-09-13T10:06:26;100039.41;;;31.28;21.52
64792;BME280;51226;47.504;19.074;2022-09-13T10:09:31;100027.34;;;31.84;20.80
64792;BME280;51226;47.504;19.074;2022-09-13T10:12:36;100025.59;;;31.99;20.48
64792;BME280;51226;47.504;19.074;2022-09-13T10:15:45;100029.25;;;31.66;20.83
64792;BME280;51226;47.504;19.074;2022-09-13T10:22:17;100026.56;;;30.80;22.15
64792;BME280;51226;47.504;19.074;2022-09-13T10:25:23;100027.94;;;31.07;21.76
64792;BME280;51226;47.504;19.074;2022-09-13T10:28:26;100011.00;;;30.16;22.75
64792;BME280;51226;47.504;19.074;2022-09-13T10:31:30;100008.72;;;29.89;22.82
64792;BME280;51226;47.504;19.074;2022-09-13T10:34:34;100014.84;;;28.93;24.19
64792;BME280;51226;47.504;19.074;2022-09-13T10:37:37;100010.94;;;29.00;24.19
64792;BME280;51226;47.504;19.074;2022-09-13T10:40:43;99994.91;;;29.78;23.22
64792;BME280;51226;47.504;19.074;2022-09-13T10:43:55;99995.41;;;29.86;22.70
64792;BME280;51226;47.504;19.074;2022-09-13T10:46:58;99997.84;;;29.52;23.23
64792;BME280;51226;47.504;19.074;2022-09-13T10:50:36;99991.25;;;29.79;22.95
64792;BME280;51226;47.504;19.074;2022-09-13T10:53:38;99992.69;;;29.67;23.31
64792;BME280;51226;47.504;19.074;2022-09-13T10:56:41;100001.03;;;30.35;22.79
64792;BME280;51226;47.504;19.074;2022-09-13T10:59:50;99993.09;;;30.15;22.95
64792;BME280;51226;47.504;19.074;2022-09-13T11:09:32;99993.69;;;29.26;24.07
64792;BME280;51226;47.504;19.074;2022-09-13T11:25:38;99975.19;;;28.36;25.64
64792;BME280;51226;47.504;19.074;2022-09-13T11:28:53;99983.00;;;29.04;24.76
64792;BME280;51226;47.504;19.074;2022-09-13T11:32:11;99979.34;;;29.84;24.01
64792;BME280;51226;47.504;19.074;2022-09-13T11:38:35;99964.81;;;30.60;23.11
64792;BME280;51226;47.504;19.074;2022-09-13T11:41:52;99953.75;;;29.95;23.16
64792;BME280;51226;47.504;19.074;2022-09-13T11:48:12;99944.03;;;29.14;23.94
64792;BME280;51226;47.504;19.074;2022-09-13T11:51:25;99942.47;;;29.10;24.26
64792;BME280;51226;47.504;19.074;2022-09-13T11:57:52;99938.28;;;27.77;25.43
64792;BME280;51226;47.504;19.074;2022-09-13T12:00:58;99952.59;;;26.81;26.54
64792;BME280;51226;47.504;19.074;2022-09-13T12:04:06;99939.69;;;26.15;27.21
64792;BME280;51226;47.504;19.074;2022-09-13T12:07:24;99941.28;;;26.21;27.20
64792;BME280;51226;47.504;19.074;2022-09-13T12:13:35;99933.25;;;25.93;28.99
64792;BME280;51226;47.504;19.074;2022-09-13T12:16:44;99934.31;;;26.42;28.67
64792;BME280;51226;47.504;19.074;2022-09-13T12:19:47;99931.03;;;26.86;27.60
64792;BME280;51226;47.504;19.074;2022-09-13T12:22:52;99926.94;;;26.23;28.25
64792;BME280;51226;47.504;19.074;2022-09-13T12:29:18;99920.69;;;26.50;27.67
64792;BME280;51226;47.504;19.074;2022-09-13T12:32:23;99921.12;;;26.88;27.11
64792;BME280;51226;47.504;19.074;2022-09-13T12:35:27;99923.25;;;27.27;27.59
64792;BME280;51226;47.504;19.074;2022-09-13T12:54:40;99908.72;;;27.78;25.38
64792;BME280;51226;47.504;19.074;2022-09-13T13:04:14;99901.72;;;27.98;26.20
64792;BME280;51226;47.504;19.074;2022-09-13T13:07:19;99903.94;;;27.64;26.67
64792;BME280;51226;47.504;19.074;2022-09-13T13:10:25;99907.31;;;26.50;27.96
64792;BME280;51226;47.504;19.074;2022-09-13T13:13:38;99893.28;;;25.63;29.52
64792;BME280;51226;47.504;19.074;2022-09-13T13:16:41;99904.81;;;25.04;30.70
64792;BME280;51226;47.504;19.074;2022-09-13T13:19:45;99896.06;;;25.30;30.60
64792;BME280;51226;47.504;19.074;2022-09-13T13:22:48;99890.09;;;26.06;29.73
64792;BME280;51226;47.504;19.074;2022-09-13T13:32:10;99879.06;;;26.91;28.51
64792;BME280;51226;47.504;19.074;2022-09-13T13:35:46;99889.41;;;26.52;29.48
64792;BME280;51226;47.504;19.074;2022-09-13T13:38:45;99886.16;;;26.92;29.27
64792;BME280;51226;47.504;19.074;2022-09-13T13:41:53;99884.09;;;27.46;28.46
64792;BME280;51226;47.504;19.074;2022-09-13T13:48:08;99876.47;;;27.37;28.65
64792;BME280;51226;47.504;19.074;2022-09-13T13:54:28;99871.06;;;26.66;29.43
64792;BME280;51226;47.504;19.074;2022-09-13T13:57:34;99869.56;;;26.83;29.50
64792;BME280;51226;47.504;19.074;2022-09-13T14:00:44;99883.75;;;27.10;29.51
64792;BME280;51226;47.504;19.074;2022-09-13T14:03:50;99871.28;;;27.32;29.07
64792;BME280;51226;47.504;19.074;2022-09-13T14:13:28;99849.63;;;27.81;28.19
64792;BME280;51226;47.504;19.074;2022-09-13T14:19:40;99859.19;;;27.44;28.42
64792;BME280;51226;47.504;19.074;2022-09-13T14:22:46;99857.03;;;27.32;28.46
64792;BME280;51226;47.504;19.074;2022-09-13T14:25:55;99847.56;;;27.22;28.87
64792;BME280;51226;47.504;19.074;2022-09-13T14:28:58;99847.13;;;27.10;29.19
64792;BME280;51226;47.504;19.074;2022-09-13T14:32:02;99844.84;;;26.99;29.13
64792;BME280;51226;47.504;19.074;2022-09-13T14:35:17;99832.47;;;26.97;29.45
64792;BME280;51226;47.504;19.074;2022-09-13T14:38:24;99831.09;;;26.87;29.68
64792;BME280;51226;47.504;19.074;2022-09-13T14:41:29;99837.12;;;26.68;29.98
64792;BME280;51226;47.504;19.074;2022-09-13T14:44:32;99834.16;;;26.51;29.39
64792;BME280;51226;47.504;19.074;2022-09-13T14:47:42;99831.19;;;26.10;30.30
64792;BME280;51226;47.504;19.074;2022-09-13T14:51:32;99820.22;;;25.91;30.65
64792;BME280;51226;47.504;19.074;2022-09-13T14:57:26;99817.34;;;25.70;31.02
64792;BME280;51226;47.504;19.074;2022-09-13T15:00:32;99814.47;;;25.21;31.70
64792;BME280;51226;47.504;19.074;2022-09-13T15:03:39;99812.94;;;24.84;32.62
64792;BME280;51226;47.504;19.074;2022-09-13T15:06:42;99808.31;;;24.59;32.89
64792;BME280;51226;47.504;19.074;2022-09-13T15:09:45;99821.03;;;24.48;33.52
64792;BME280;51226;47.504;19.074;2022-09-13T15:12:52;99811.56;;;24.38;33.50
64792;BME280;51226;47.504;19.074;2022-09-13T15:15:54;99810.37;;;24.15;33.95
64792;BME280;51226;47.504;19.074;2022-09-13T15:22:40;99809.75;;;23.71;34.75
64792;BME280;51226;47.504;19.074;2022-09-13T15:25:47;99803.78;;;23.61;34.92
64792;BME280;51226;47.504;19.074;2022-09-13T15:28:53;99802.63;;;23.36;35.19
64792;BME280;51226;47.504;19.074;2022-09-13T15:31:58;99802.09;;;23.20;35.48
64792;BME280;51226;47.504;19.074;2022-09-13T15:35:00;99797.44;;;22.90;35.96
64792;BME280;51226;47.504;19.074;2022-09-13T15:38:21;99793.31;;;22.75;36.27
64792;BME280;51226;47.504;19.074;2022-09-13T15:41:27;99791.59;;;22.73;36.41
64792;BME280;51226;47.504;19.074;2022-09-13T15:44:31;99792.44;;;22.75;36.42
64792;BME280;51226;47.504;19.074;2022-09-13T15:47:33;99790.78;;;22.69;36.43
64792;BME280;51226;47.504;19.074;2022-09-13T15:50:36;99796.16;;;22.66;36.82
64792;BME280;51226;47.504;19.074;2022-09-13T15:53:41;99798.53;;;22.80;36.56
64792;BME280;51226;47.504;19.074;2022-09-13T15:56:45;99798.38;;;22.88;36.32
64792;BME280;51226;47.504;19.074;2022-09-13T15:59:48;99791.47;;;22.79;36.40
64792;BME280;51226;47.504;19.074;2022-09-13T16:02:51;99787.13;;;22.75;36.58
64792;BME280;51226;47.504;19.074;2022-09-13T16:05:54;99783.72;;;22.68;36.73
64792;BME280;51226;47.504;19.074;2022-09-13T16:09:18;99776.38;;;22.80;36.51
64792;BME280;51226;47.504;19.074;2022-09-13T16:12:22;99776.50;;;22.73;36.86
64792;BME280;51226;47.504;19.074;2022-09-13T16:15:25;99778.34;;;22.71;36.84
64792;BME280;51226;47.504;19.074;2022-09-13T16:18:30;99768.72;;;22.66;36.92
64792;BME280;51226;47.504;19.074;2022-09-13T16:21:35;99764.41;;;22.58;37.18
64792;BME280;51226;47.504;19.074;2022-09-13T16:24:38;99764.16;;;22.71;36.94
64792;BME280;51226;47.504;19.074;2022-09-13T16:27:41;99758.66;;;22.79;36.73
64792;BME280;51226;47.504;19.074;2022-09-13T16:30:45;99766.91;;;22.68;36.92
64792;BME280;51226;47.504;19.074;2022-09-13T16:33:47;99760.78;;;22.64;36.97
64792;BME280;51226;47.504;19.074;2022-09-13T16:36:50;99763.78;;;22.47;37.33
64792;BME280;51226;47.504;19.074;2022-09-13T16:39:57;99757.69;;;22.44;37.34
64792;BME280;51226;47.504;19.074;2022-09-13T16:42:59;99742.91;;;22.27;37.67
64792;BME280;51226;47.504;19.074;2022-09-13T16:46:05;99755.50;;;22.17;37.94
64792;BME280;51226;47.504;19.074;2022-09-13T16:49:11;99755.47;;;22.19;38.29
64792;BME280;51226;47.504;19.074;2022-09-13T16:52:13;99750.94;;;22.24;37.90
64792;BME280;51226;47.504;19.074;2022-09-13T16:55:16;99759.03;;;22.18;37.94
64792;BME280;51226;47.504;19.074;2022-09-13T16:58:25;99760.97;;;22.08;38.19
64792;BME280;51226;47.504;19.074;2022-09-13T17:01:34;99752.81;;;22.19;38.20
64792;BME280;51226;47.504;19.074;2022-09-13T17:04:54;99761.66;;;22.19;38.02
64792;BME280;51226;47.504;19.074;2022-09-13T17:07:57;99765.37;;;22.11;38.33
64792;BME280;51226;47.504;19.074;2022-09-13T17:11:00;99763.94;;;21.93;39.11
64792;BME280;51226;47.504;19.074;2022-09-13T17:14:06;99764.94;;;21.87;42.68
64792;BME280;51226;47.504;19.074;2022-09-13T17:17:12;99759.56;;;21.90;39.36
64792;BME280;51226;47.504;19.074;2022-09-13T17:20:20;99770.41;;;21.78;42.78
64792;BME280;51226;47.504;19.074;2022-09-13T17:23:33;99765.28;;;21.69;42.86
64792;BME280;51226;47.504;19.074;2022-09-13T17:26:36;99768.06;;;21.59;42.64
64792;BME280;51226;47.504;19.074;2022-09-13T17:29:43;99764.94;;;21.87;39.44
64792;BME280;51226;47.504;19.074;2022-09-13T17:32:48;99758.84;;;21.82;39.27
64792;BME280;51226;47.504;19.074;2022-09-13T17:39:20;99766.06;;;21.74;39.39
64792;BME280;51226;47.504;19.074;2022-09-13T17:42:22;99755.66;;;21.60;39.66
64792;BME280;51226;47.504;19.074;2022-09-13T17:45:25;99769.88;;;21.57;40.00
64792;BME280;51226;47.504;19.074;2022-09-13T17:48:27;99764.72;;;21.48;40.41
64792;BME280;51226;47.504;19.074;2022-09-13T17:51:31;99765.63;;;21.47;40.45
64792;BME280;51226;47.504;19.074;2022-09-13T17:54:33;99766.44;;;21.52;40.34
64792;BME280;51226;47.504;19.074;2022-09-13T17:57:38;99763.75;;;21.54;40.21
64792;BME280;51226;47.504;19.074;2022-09-13T18:00:41;99765.72;;;21.39;40.63
64792;BME280;51226;47.504;19.074;2022-09-13T18:03:43;99762.34;;;21.28;40.82
64792;BME280;51226;47.504;19.074;2022-09-13T18:06:47;99760.69;;;21.22;41.05
64792;BME280;51226;47.504;19.074;2022-09-13T18:09:51;99767.69;;;21.25;41.21
64792;BME280;51226;47.504;19.074;2022-09-13T18:12:54;99764.37;;;21.14;41.74
64792;BME280;51226;47.504;19.074;2022-09-13T18:15:57;99769.72;;;21.10;41.71
64792;BME280;51226;47.504;19.074;2022-09-13T18:19:00;99768.84;;;21.10;41.80
64792;BME280;51226;47.504;19.074;2022-09-13T18:22:03;99773.34;;;21.05;41.97
64792;BME280;51226;47.504;19.074;2022-09-13T18:25:08;99776.03;;;21.02;42.29
64792;BME280;51226;47.504;19.074;2022-09-13T18:28:11;99789.19;;;21.06;43.00
64792;BME280;51226;47.504;19.074;2022-09-13T18:31:14;99784.84;;;21.04;42.61
64792;BME280;51226;47.504;19.074;2022-09-13T18:34:18;99792.78;;;21.05;42.71
64792;BME280;51226;47.504;19.074;2022-09-13T18:37:26;99790.94;;;21.10;42.85
64792;BME280;51226;47.504;19.074;2022-09-13T18:40:29;99791.91;;;21.05;43.04